createdAt,value
2023-02-08T00:01:07.587Z,20.63
2023-02-08T00:03:35.126Z,24.20
2023-02-08T00:06:02.860Z,24.52
2023-02-08T00:08:30.929Z,24.15
2023-02-08T00:10:58.187Z,25.75
2023-02-08T00:13:26.061Z,25.17
2023-02-08T00:15:54.647Z,26.73
2023-02-08T00:18:22.460Z,28.13
2023-02-08T00:20:50.062Z,25.20
2023-02-08T00:23:17.418Z,29.27
2023-02-08T00:25:44.737Z,32.42
2023-02-08T00:28:13.940Z,38.15
2023-02-08T00:30:43.578Z,32.25
2023-02-08T00:33:12.394Z,32.53
2023-02-08T00:35:41.102Z,29.92
2023-02-08T00:38:08.447Z,34.85
2023-02-08T00:40:35.700Z,30.30
2023-02-08T00:43:03.659Z,34.22
2023-02-08T00:45:32.093Z,34.55
2023-02-08T00:47:59.549Z,29.67
2023-02-08T00:50:26.801Z,30.48
2023-02-08T00:52:54.049Z,31.00
2023-02-08T00:55:21.300Z,29.67
2023-02-08T00:57:48.559Z,28.70
2023-02-08T01:00:16.032Z,28.20
2023-02-08T01:02:43.347Z,28.80
2023-02-08T01:05:11.924Z,25.45
2023-02-08T01:07:40.164Z,28.55
2023-02-08T01:10:12.471Z,29.77
2023-02-08T01:12:41.365Z,28.02
2023-02-08T01:15:09.135Z,26.67
2023-02-08T01:17:36.451Z,26.63
2023-02-08T01:20:03.938Z,29.70
2023-02-08T01:22:31.149Z,30.95
2023-02-08T01:24:58.366Z,26.52
2023-02-08T01:27:25.786Z,32.15
2023-02-08T01:29:53.397Z,33.00
2023-02-08T01:32:20.790Z,28.42
2023-02-08T01:34:48.069Z,31.42
2023-02-08T01:37:15.359Z,34.85
2023-02-08T01:39:42.634Z,34.65
2023-02-08T01:42:13.997Z,31.90
2023-02-08T01:45:23.002Z,31.73
2023-02-08T01:47:54.089Z,30.60
2023-02-08T01:50:24.533Z,34.25
2023-02-08T01:52:52.059Z,34.42
2023-02-08T01:55:27.386Z,31.55
2023-02-08T01:57:56.413Z,29.27
2023-02-08T02:00:24.562Z,32.33
2023-02-08T02:02:54.224Z,38.28
2023-02-08T02:05:23.243Z,34.30
2023-02-08T02:07:52.217Z,34.57
2023-02-08T02:10:26.998Z,31.48
2023-02-08T02:12:55.784Z,28.75
2023-02-08T02:15:23.666Z,28.92
2023-02-08T02:17:50.918Z,28.85
2023-02-08T02:20:40.185Z,35.08
2023-02-08T02:23:13.408Z,39.30
2023-02-08T02:25:49.784Z,29.38
2023-02-08T02:28:43.233Z,25.48
2023-02-08T02:32:08.051Z,28.33
2023-02-08T02:34:46.802Z,32.78
2023-02-08T02:37:29.039Z,27.10
2023-02-08T02:40:20.442Z,25.77
2023-02-08T02:43:15.259Z,25.85
2023-02-08T02:46:19.909Z,22.98
2023-02-08T02:49:02.523Z,24.73
2023-02-08T02:51:40.816Z,22.00
2023-02-08T02:54:41.083Z,27.02
2023-02-08T02:57:11.582Z,25.90
2023-02-08T02:59:39.663Z,23.52
2023-02-08T03:02:06.915Z,26.83
2023-02-08T03:04:34.187Z,24.13
2023-02-08T03:07:10.508Z,31.80
2023-02-08T03:10:05.637Z,23.63
2023-02-08T03:12:57.769Z,28.63
2023-02-08T03:15:46.642Z,23.33
2023-02-08T03:18:26.134Z,23.40
2023-02-08T03:21:28.157Z,22.85
2023-02-08T03:24:07.566Z,24.55
2023-02-08T03:26:39.084Z,23.63
2023-02-08T03:29:12.617Z,21.83
2023-02-08T03:31:51.775Z,25.23
2023-02-08T03:34:44.662Z,26.05
2023-02-08T03:37:17.979Z,27.08
2023-02-08T03:39:47.081Z,24.92
2023-02-08T03:42:21.698Z,26.43
2023-02-08T03:44:57.317Z,24.38
2023-02-08T03:47:30.330Z,24.00
2023-02-08T03:50:00.511Z,27.48
2023-02-08T03:52:28.770Z,23.10
2023-02-08T03:55:01.410Z,26.80
2023-02-08T03:57:36.044Z,23.77
2023-02-08T04:00:09.773Z,23.50
2023-02-08T04:02:44.204Z,25.25
2023-02-08T04:05:11.778Z,25.23
2023-02-08T04:07:39.073Z,24.38
2023-02-08T04:10:06.640Z,23.73
2023-02-08T04:12:33.883Z,25.95
2023-02-08T04:15:01.220Z,27.30
2023-02-08T04:17:28.504Z,27.40
2023-02-08T04:19:55.761Z,27.20
2023-02-08T04:22:23.045Z,27.63
2023-02-08T04:24:50.237Z,28.02
2023-02-08T04:27:17.759Z,28.27
2023-02-08T04:29:45.013Z,24.92
2023-02-08T04:32:13.480Z,24.73
2023-02-08T04:34:41.308Z,26.10
2023-02-08T04:37:08.906Z,25.90
2023-02-08T04:39:36.238Z,29.02
2023-02-08T04:42:03.562Z,26.73
2023-02-08T04:44:32.878Z,29.17
2023-02-08T04:47:00.508Z,29.05
2023-02-08T04:49:27.876Z,25.13
2023-02-08T04:51:55.200Z,26.98
2023-02-08T04:54:23.040Z,29.95
2023-02-08T04:56:50.314Z,26.77
2023-02-08T04:59:18.419Z,25.17
2023-02-08T05:01:45.961Z,29.30
2023-02-08T05:04:13.344Z,29.17
2023-02-08T05:06:40.695Z,31.77
2023-02-08T05:09:09.222Z,29.10
2023-02-08T05:11:36.842Z,26.35
2023-02-08T05:14:04.729Z,29.65
2023-02-08T05:16:32.183Z,27.80
2023-02-08T05:18:59.515Z,25.45
2023-02-08T05:21:27.002Z,28.15
2023-02-08T05:23:54.360Z,28.35
2023-02-08T05:26:21.734Z,24.80
2023-02-08T05:28:49.068Z,27.83
2023-02-08T05:31:25.506Z,29.40
2023-02-08T05:33:53.540Z,27.00
2023-02-08T05:36:21.277Z,30.13
2023-02-08T05:38:49.243Z,26.08
2023-02-08T05:41:17.263Z,24.67
2023-02-08T05:43:45.928Z,26.85
2023-02-08T05:46:13.731Z,26.10
2023-02-08T05:48:41.111Z,24.50
2023-02-08T05:51:08.688Z,27.20
2023-02-08T05:53:36.814Z,25.98
2023-02-08T05:56:05.216Z,27.67
2023-02-08T05:58:33.799Z,28.42
2023-02-08T06:01:01.232Z,25.30
2023-02-08T06:03:31.307Z,28.85
2023-02-08T06:06:01.015Z,29.42
2023-02-08T06:08:28.525Z,30.17
2023-02-08T06:10:55.770Z,32.88
2023-02-08T06:13:23.196Z,30.40
2023-02-08T06:15:50.449Z,29.17
2023-02-08T06:18:18.553Z,29.17
2023-02-08T06:20:46.008Z,27.23
2023-02-08T06:23:13.283Z,31.30
2023-02-08T06:25:40.534Z,30.80
2023-02-08T06:28:10.740Z,28.58
2023-02-08T06:30:39.115Z,33.85
2023-02-08T06:33:06.552Z,30.10
2023-02-08T06:35:34.035Z,29.67
2023-02-08T06:38:01.358Z,30.02
2023-02-08T06:40:28.756Z,30.55
2023-02-08T06:42:56.392Z,31.63
2023-02-08T06:45:23.780Z,28.80
2023-02-08T06:47:51.342Z,34.58
2023-02-08T06:50:18.741Z,32.78
2023-02-08T06:52:45.963Z,26.50
2023-02-08T06:55:13.798Z,27.63
2023-02-08T06:57:41.091Z,32.88
2023-02-08T07:00:09.134Z,28.10
2023-02-08T07:02:37.489Z,29.17
2023-02-08T07:05:05.132Z,31.23
2023-02-08T07:07:33.185Z,31.88
2023-02-08T07:10:00.764Z,30.90
2023-02-08T07:12:28.242Z,30.13
2023-02-08T07:14:55.560Z,34.65
2023-02-08T07:17:23.349Z,30.40
2023-02-08T07:19:51.087Z,34.63
2023-02-08T07:22:18.358Z,27.55
2023-02-08T07:24:45.637Z,28.48
2023-02-08T07:27:13.573Z,31.67
2023-02-08T07:29:41.266Z,28.40
2023-02-08T07:32:08.778Z,29.75
2023-02-08T07:34:37.690Z,28.95
2023-02-08T07:37:05.182Z,27.45
2023-02-08T07:39:32.728Z,32.00
2023-02-08T07:42:00.321Z,32.38
2023-02-08T07:44:32.402Z,30.10
2023-02-08T07:47:01.691Z,28.33
2023-02-08T07:49:29.061Z,30.80
2023-02-08T07:51:57.261Z,29.42
2023-02-08T07:54:24.623Z,33.35
2023-02-08T07:56:51.896Z,27.90
2023-02-08T07:59:19.503Z,28.10
2023-02-08T08:01:53.610Z,24.40
2023-02-08T08:04:22.104Z,30.02
2023-02-08T08:06:51.466Z,28.67
2023-02-08T08:09:20.313Z,30.42
2023-02-08T08:11:47.561Z,29.65
2023-02-08T08:14:14.891Z,33.28
2023-02-08T08:16:44.523Z,25.33
2023-02-08T08:19:12.333Z,27.33
2023-02-08T08:21:40.877Z,30.08
2023-02-08T08:24:08.409Z,30.90
2023-02-08T08:26:35.665Z,28.42
2023-02-08T08:29:03.090Z,30.67
2023-02-08T08:31:31.037Z,30.67
2023-02-08T08:33:58.505Z,33.53
2023-02-08T08:36:25.839Z,29.80
2023-02-08T08:38:53.262Z,28.10
2023-02-08T08:41:22.777Z,30.85
2023-02-08T08:43:50.137Z,25.48
2023-02-08T08:46:18.327Z,27.48
2023-02-08T08:48:46.888Z,29.30
2023-02-08T08:51:14.572Z,27.33
2023-02-08T08:53:41.816Z,29.35
2023-02-08T08:56:09.230Z,27.63
2023-02-08T08:58:36.605Z,30.38
2023-02-08T09:01:04.098Z,34.85
2023-02-08T09:03:31.586Z,30.77
2023-02-08T09:05:58.941Z,25.67
2023-02-08T09:08:26.382Z,25.27
2023-02-08T09:10:53.692Z,24.17
2023-02-08T09:13:21.942Z,29.85
2023-02-08T09:15:49.497Z,24.75
2023-02-08T09:18:16.982Z,27.65
2023-02-08T09:20:45.167Z,26.63
2023-02-08T09:23:12.936Z,28.00
2023-02-08T09:25:40.190Z,25.33
2023-02-08T09:28:08.144Z,25.45
2023-02-08T09:30:35.520Z,28.10
2023-02-08T09:33:02.803Z,23.77
2023-02-08T09:35:30.312Z,30.75
2023-02-08T09:37:58.364Z,25.58
2023-02-08T09:40:28.851Z,28.90
2023-02-08T09:43:10.062Z,23.60
2023-02-08T09:45:41.333Z,31.88
2023-02-08T09:48:24.588Z,29.67
2023-02-08T09:51:04.980Z,32.42
2023-02-08T09:53:40.355Z,27.60
2023-02-08T09:56:12.235Z,33.88
2023-02-08T09:58:49.601Z,26.20
2023-02-08T10:01:21.756Z,29.63
2023-02-08T10:03:51.524Z,26.17
2023-02-08T10:06:20.145Z,30.95
2023-02-08T10:08:50.185Z,32.20
2023-02-08T10:11:28.379Z,27.75
2023-02-08T10:13:55.752Z,31.55
2023-02-08T10:16:36.850Z,29.77
2023-02-08T10:19:34.988Z,27.02
2023-02-08T10:22:05.079Z,24.33
2023-02-08T10:24:50.399Z,29.77
2023-02-08T10:27:40.839Z,30.02
2023-02-08T10:30:28.882Z,31.33
2023-02-08T10:33:02.399Z,29.60
2023-02-08T10:35:37.311Z,31.35
2023-02-08T10:38:45.361Z,25.63
2023-02-08T10:41:34.399Z,31.13
2023-02-08T10:44:12.487Z,29.17
2023-02-08T10:46:47.942Z,29.70
2023-02-08T10:49:38.168Z,27.25
2023-02-08T10:52:06.195Z,27.83
2023-02-08T10:54:36.630Z,33.53
2023-02-08T10:57:07.424Z,30.25
2023-02-08T10:59:59.012Z,23.45
2023-02-08T11:02:28.817Z,28.13
2023-02-08T11:05:04.128Z,28.40
2023-02-08T11:07:33.618Z,23.33
2023-02-08T11:10:14.642Z,23.95
2023-02-08T11:12:44.249Z,26.10
2023-02-08T11:15:47.802Z,24.70
2023-02-08T11:18:26.904Z,25.08
2023-02-08T11:21:00.110Z,24.03
2023-02-08T11:23:32.783Z,25.98
2023-02-08T11:26:31.263Z,26.60
2023-02-08T11:28:58.537Z,30.30
2023-02-08T11:31:26.008Z,29.05
2023-02-08T11:34:05.509Z,29.42
2023-02-08T11:36:34.773Z,25.83
2023-02-08T11:39:04.637Z,22.27
2023-02-08T11:41:34.054Z,25.08
2023-02-08T11:44:06.193Z,23.05
2023-02-08T11:46:35.413Z,25.30
2023-02-08T11:49:03.926Z,22.67
2023-02-08T11:51:37.164Z,30.00
2023-02-08T11:54:06.469Z,22.55
2023-02-08T11:56:38.283Z,23.15
2023-02-08T11:59:23.250Z,19.50
2023-02-08T12:01:50.758Z,23.15
2023-02-08T12:04:18.044Z,22.25
2023-02-08T12:07:27.755Z,23.70
2023-02-08T12:10:03.503Z,25.92
2023-02-08T12:12:53.636Z,26.55
2023-02-08T12:18:04.320Z,24.35
2023-02-08T12:20:45.384Z,25.38
2023-02-08T12:23:34.994Z,21.25
2023-02-08T12:26:17.055Z,26.00
2023-02-08T12:28:50.274Z,32.63
2023-02-08T12:31:27.909Z,24.70
2023-02-08T12:34:16.013Z,25.15
2023-02-08T12:37:20.915Z,26.67
2023-02-08T12:40:19.186Z,22.85
2023-02-08T12:43:03.757Z,25.08
2023-02-08T12:45:43.711Z,29.42
2023-02-08T12:48:48.305Z,25.70
2023-02-08T12:51:27.771Z,33.20
2023-02-08T12:54:03.057Z,30.17
2023-02-08T12:56:34.124Z,25.42
2023-02-08T12:59:13.071Z,26.08
2023-02-08T13:01:44.448Z,25.08
2023-02-08T13:04:26.136Z,26.98
2023-02-08T13:06:57.019Z,24.20
2023-02-08T13:09:35.363Z,24.92
2023-02-08T13:12:16.562Z,24.10
2023-02-08T13:14:52.856Z,24.73
2023-02-08T13:17:29.245Z,25.80
2023-02-08T13:20:26.012Z,23.60
2023-02-08T13:22:56.930Z,26.38
2023-02-08T13:25:30.906Z,25.42
2023-02-08T13:28:03.890Z,24.27
2023-02-08T13:30:32.516Z,24.70
2023-02-08T13:33:05.827Z,22.13
2023-02-08T13:35:33.620Z,25.67
2023-02-08T13:38:05.012Z,22.38
2023-02-08T13:40:34.876Z,23.35
2023-02-08T13:43:09.325Z,23.40
2023-02-08T13:45:41.823Z,24.25
2023-02-08T13:48:12.174Z,21.00
2023-02-08T13:50:45.400Z,24.33
2023-02-08T13:53:14.989Z,22.80
2023-02-08T13:55:53.512Z,18.57
2023-02-08T13:58:28.470Z,17.98
2023-02-08T14:00:56.556Z,18.35
2023-02-08T14:03:31.047Z,20.45
2023-02-08T14:06:04.252Z,17.88
2023-02-08T14:08:39.766Z,18.65
2023-02-08T14:11:39.211Z,20.65
2023-02-08T14:14:14.102Z,16.45
2023-02-08T14:16:45.846Z,19.15
2023-02-08T14:19:15.893Z,15.50
2023-02-08T14:24:27.484Z,14.60
2023-02-08T14:27:09.197Z,14.88
2023-02-08T14:29:37.412Z,16.75
2023-02-08T14:32:05.138Z,17.25
2023-02-08T14:34:35.684Z,17.45
2023-02-08T14:37:06.760Z,16.65
2023-02-08T14:39:35.186Z,17.92
2023-02-08T14:42:07.440Z,17.25
2023-02-08T14:44:37.885Z,14.90
2023-02-08T14:47:26.837Z,14.75
2023-02-08T14:50:38.735Z,20.50
2023-02-08T14:53:16.693Z,16.08
2023-02-08T14:55:51.479Z,21.35
2023-02-08T14:58:28.427Z,17.25
2023-02-08T15:00:57.939Z,16.88
2023-02-08T15:03:26.997Z,14.32
2023-02-08T15:06:06.472Z,14.48
2023-02-08T15:08:33.980Z,15.73
2023-02-08T15:11:01.312Z,19.50
2023-02-08T15:13:29.670Z,14.73
2023-02-08T15:15:57.727Z,14.40
2023-02-08T15:18:29.599Z,17.45
2023-02-08T15:21:05.872Z,19.77
2023-02-08T15:23:33.476Z,16.15
2023-02-08T15:26:03.560Z,13.57
2023-02-08T15:31:02.396Z,13.63
2023-02-08T15:33:29.870Z,14.60
2023-02-08T15:35:59.006Z,13.50
2023-02-08T15:38:26.574Z,12.93
2023-02-08T15:41:09.843Z,13.10
2023-02-08T15:43:39.002Z,16.90
2023-02-08T15:46:16.514Z,17.42
2023-02-08T15:48:48.014Z,14.05
2023-02-08T15:51:16.226Z,12.98
2023-02-08T15:53:49.847Z,16.40
2023-02-08T15:56:42.722Z,13.88
2023-02-08T15:59:17.696Z,15.20
2023-02-08T16:01:48.736Z,17.48
2023-02-08T16:04:16.388Z,14.25
2023-02-08T16:07:01.935Z,16.52
2023-02-08T16:09:30.308Z,14.10
2023-02-08T16:11:59.837Z,15.93
2023-02-08T16:14:30.196Z,18.00
2023-02-08T16:16:59.464Z,17.73
2023-02-08T16:19:27.692Z,19.00
2023-02-08T16:22:16.932Z,16.40
2023-02-08T16:24:46.907Z,17.47
2023-02-08T16:29:51.771Z,17.67
2023-02-08T16:32:29.300Z,17.33
2023-02-08T16:34:56.918Z,15.43
2023-02-08T16:37:40.971Z,17.10
2023-02-08T16:40:43.765Z,16.88
2023-02-08T16:43:18.033Z,16.58
2023-02-08T16:45:45.856Z,24.33
2023-02-08T16:48:39.077Z,14.80
2023-02-08T16:51:26.034Z,17.77
2023-02-08T16:54:01.084Z,16.65
2023-02-08T16:56:35.245Z,16.60
2023-02-08T16:59:03.045Z,15.82
2023-02-08T17:01:31.046Z,17.75
2023-02-08T17:04:00.313Z,16.90
2023-02-08T17:06:30.352Z,17.13
2023-02-08T17:11:26.375Z,16.05
2023-02-08T17:13:54.688Z,22.08
2023-02-08T17:16:24.680Z,18.58
2023-02-08T17:21:20.434Z,17.83
2023-02-08T17:23:47.953Z,22.08
2023-02-08T17:26:23.206Z,23.63
2023-02-08T17:28:50.925Z,20.05
2023-02-08T17:31:19.132Z,20.70
2023-02-08T17:33:46.731Z,16.77
2023-02-08T17:36:15.651Z,33.20
2023-02-08T17:38:45.828Z,14.80
2023-02-08T17:41:15.612Z,17.98
2023-02-08T17:43:43.186Z,17.65
2023-02-08T17:46:12.658Z,17.20
2023-02-08T17:48:40.273Z,16.80
2023-02-08T17:51:15.993Z,16.17
2023-02-08T17:53:44.557Z,15.88
2023-02-08T17:56:18.581Z,17.40
2023-02-08T17:58:48.928Z,19.60
2023-02-08T18:01:21.902Z,19.02
2023-02-08T18:03:50.657Z,19.00
2023-02-08T18:06:20.706Z,19.48
2023-02-08T18:08:48.192Z,17.60
2023-02-08T18:11:19.724Z,19.63
2023-02-08T18:13:48.565Z,20.85
2023-02-08T18:16:26.355Z,17.58
2023-02-08T18:18:58.445Z,17.75
2023-02-08T18:21:28.965Z,19.65
2023-02-08T18:23:56.525Z,18.45
2023-02-08T18:26:26.022Z,20.50
2023-02-08T18:28:53.742Z,19.40
2023-02-08T18:31:21.581Z,22.48
2023-02-08T18:33:49.825Z,19.35
2023-02-08T18:36:18.134Z,19.75
2023-02-08T18:38:47.133Z,19.40
2023-02-08T18:41:17.214Z,19.67
2023-02-08T18:46:15.322Z,22.92
2023-02-08T18:48:43.834Z,21.55
2023-02-08T18:51:14.413Z,24.38
2023-02-08T18:53:42.310Z,21.20
2023-02-08T18:56:11.658Z,24.75
2023-02-08T18:58:39.644Z,27.45
2023-02-08T19:01:13.787Z,20.00
2023-02-08T19:03:41.317Z,20.15
2023-02-08T19:06:11.321Z,21.27
2023-02-08T19:08:40.324Z,19.75
2023-02-08T19:11:28.816Z,25.33
2023-02-08T19:13:57.534Z,20.40
2023-02-08T19:16:25.606Z,24.02
2023-02-08T19:18:53.516Z,23.02
2023-02-08T19:21:21.569Z,21.83
2023-02-08T19:23:53.736Z,21.55
2023-02-08T19:26:26.870Z,32.80
2023-02-08T19:28:59.321Z,34.50
2023-02-08T19:31:28.162Z,31.15
2023-02-08T19:33:58.765Z,27.02
2023-02-08T19:36:38.793Z,23.80
2023-02-08T19:41:37.107Z,20.65
2023-02-08T19:44:07.317Z,22.63
2023-02-08T19:46:38.681Z,20.33
2023-02-08T19:49:10.328Z,21.63
2023-02-08T19:51:38.212Z,22.42
2023-02-08T19:54:09.626Z,23.65
2023-02-08T19:56:37.253Z,27.50
2023-02-08T19:59:08.555Z,28.08
2023-02-08T20:01:36.500Z,25.33
2023-02-08T20:04:05.788Z,27.63
2023-02-08T20:06:35.827Z,24.08
2023-02-08T20:11:35.971Z,23.10
2023-02-08T20:14:05.938Z,28.40
2023-02-08T20:16:33.941Z,31.27
2023-02-08T20:19:01.549Z,32.25
2023-02-08T20:21:32.885Z,33.50
2023-02-08T20:24:14.393Z,28.77
2023-02-08T20:26:51.957Z,34.88
2023-02-08T20:29:22.780Z,32.08
2023-02-08T20:31:55.703Z,34.50
2023-02-08T20:34:23.573Z,35.38
2023-02-08T20:37:05.792Z,40.45
2023-02-08T20:39:38.399Z,39.50
2023-02-08T20:42:06.307Z,40.42
2023-02-08T20:44:34.472Z,43.42
2023-02-08T20:47:04.563Z,36.92
2023-02-08T20:49:33.089Z,38.85
2023-02-08T20:52:00.882Z,40.30
2023-02-08T20:54:31.122Z,40.67
2023-02-08T20:57:04.831Z,42.97
2023-02-08T20:59:35.626Z,43.40
2023-02-08T21:02:05.267Z,45.35
2023-02-08T21:04:38.724Z,41.45
2023-02-08T21:07:06.313Z,51.42
2023-02-08T21:09:33.573Z,54.17
2023-02-08T21:12:10.162Z,56.25
2023-02-08T21:14:37.916Z,60.78
2023-02-08T21:17:10.741Z,81.18
2023-02-08T21:19:39.643Z,53.88
2023-02-08T21:22:09.637Z,52.97
2023-02-08T21:27:07.367Z,53.25
2023-02-08T21:29:37.993Z,49.67
2023-02-08T21:32:05.673Z,54.10
2023-02-08T21:34:33.384Z,53.95
2023-02-08T21:37:00.999Z,54.53
2023-02-08T21:39:28.309Z,59.78
2023-02-08T21:41:55.746Z,51.67
2023-02-08T21:44:23.728Z,55.70
2023-02-08T21:46:51.171Z,52.10
2023-02-08T21:49:37.218Z,52.83
2023-02-08T21:52:23.049Z,50.80
2023-02-08T21:54:53.803Z,56.53
2023-02-08T21:57:23.782Z,53.65
2023-02-08T21:59:53.592Z,53.53
2023-02-08T22:02:26.303Z,51.85
2023-02-08T22:05:14.604Z,58.22
2023-02-08T22:07:43.287Z,54.03
2023-02-08T22:10:12.050Z,56.00
2023-02-08T22:12:41.909Z,56.45
2023-02-08T22:15:11.651Z,54.33
2023-02-08T22:20:22.204Z,56.85
2023-02-08T22:22:54.859Z,53.40
2023-02-08T22:25:24.972Z,53.88
2023-02-08T22:27:57.095Z,59.67
2023-02-08T22:30:25.663Z,56.33
2023-02-08T22:32:53.170Z,54.78
2023-02-08T22:35:20.511Z,57.22
2023-02-08T22:37:47.884Z,55.42
2023-02-08T22:40:15.331Z,58.40
2023-02-08T22:42:42.918Z,65.65
2023-02-08T22:45:10.382Z,54.47
2023-02-08T22:47:38.122Z,55.63
2023-02-08T22:50:08.860Z,64.72
2023-02-08T22:52:36.302Z,59.90
2023-02-08T22:55:04.710Z,56.00
2023-02-08T22:57:34.248Z,53.22
2023-02-08T23:00:01.770Z,58.38
2023-02-08T23:02:29.058Z,54.75
2023-02-08T23:04:56.493Z,52.75
2023-02-08T23:07:23.912Z,53.13
2023-02-08T23:09:51.198Z,52.00
2023-02-08T23:12:18.496Z,52.38
2023-02-08T23:14:46.002Z,52.78
2023-02-08T23:17:13.342Z,46.70
2023-02-08T23:19:40.702Z,52.13
2023-02-08T23:22:08.610Z,47.53
2023-02-08T23:24:35.926Z,53.35
2023-02-08T23:27:03.219Z,54.13
2023-02-08T23:29:30.712Z,49.97
2023-02-08T23:31:58.058Z,44.88
2023-02-08T23:34:25.398Z,57.25
2023-02-08T23:36:52.786Z,45.70
2023-02-08T23:39:20.135Z,49.20
2023-02-08T23:41:47.482Z,52.20
2023-02-08T23:44:14.894Z,50.15
2023-02-08T23:46:42.392Z,48.33
2023-02-08T23:49:09.705Z,47.92
2023-02-08T23:51:37.059Z,48.95
2023-02-08T23:54:04.549Z,51.35
2023-02-08T23:56:32.456Z,48.85
2023-02-08T23:59:00.009Z,55.35
